createdAt,value
2023-05-08T00:31:20.790Z,98519.78
2023-05-08T01:36:11.495Z,98554.00
2023-05-08T01:38:53.362Z,98552.13
2023-05-08T01:57:34.522Z,98562.22
2023-05-08T02:00:02.643Z,98565.94
2023-05-08T02:02:31.480Z,98571.13
2023-05-08T02:04:58.901Z,98566.34
2023-05-08T02:07:26.167Z,98572.63
2023-05-08T02:09:54.545Z,98563.84
2023-05-08T02:20:28.794Z,98575.06
2023-05-08T02:22:56.557Z,98574.97
2023-05-08T02:25:24.138Z,98570.34
2023-05-08T02:27:52.247Z,98571.59
2023-05-08T02:30:19.709Z,98566.91
2023-05-08T02:32:49.476Z,98574.22
2023-05-08T02:35:18.059Z,98569.69
2023-05-08T02:37:53.626Z,98569.91
2023-05-08T02:40:22.051Z,98579.50
2023-05-08T02:42:49.477Z,98580.97
2023-05-08T02:45:15.905Z,98574.81
2023-05-08T02:48:07.628Z,98578.16
2023-05-08T03:18:32.971Z,98590.84
2023-05-08T03:21:00.202Z,98585.88
2023-05-08T03:23:29.042Z,98594.13
2023-05-08T03:25:58.572Z,98598.88
2023-05-08T03:28:26.248Z,98589.22
2023-05-08T03:30:53.981Z,98591.66
2023-05-08T03:41:39.973Z,98596.69
2023-05-08T03:44:07.549Z,98597.75
2023-05-08T03:46:35.535Z,98595.09
2023-05-08T04:11:23.236Z,98603.97
2023-05-08T04:13:53.988Z,98615.50
2023-05-08T04:16:24.022Z,98620.22
2023-05-08T04:18:54.331Z,98616.50
2023-05-08T04:21:24.004Z,98622.03
2023-05-08T04:23:52.121Z,98620.81
2023-05-08T04:26:18.966Z,98627.56
2023-05-08T04:28:46.005Z,98628.38
2023-05-08T04:31:15.330Z,98634.13
2023-05-08T04:33:44.485Z,98627.28
2023-05-08T04:36:14.381Z,98626.69
2023-05-08T04:38:41.060Z,98627.50
2023-05-08T04:41:08.337Z,98633.69
2023-05-08T04:43:35.398Z,98637.38
2023-05-08T04:46:01.920Z,98642.13
2023-05-08T04:51:09.827Z,98629.97
2023-05-08T04:53:36.107Z,98644.53
2023-05-08T04:56:02.382Z,98640.81
2023-05-08T04:58:28.766Z,98639.94
2023-05-08T05:00:55.042Z,98650.00
2023-05-08T05:03:21.394Z,98650.59
2023-05-08T05:05:47.897Z,98642.75
2023-05-08T05:08:14.156Z,98646.00
2023-05-08T05:10:40.464Z,98649.50
2023-05-08T05:13:06.861Z,98655.66
2023-05-08T05:15:33.192Z,98656.63
2023-05-08T05:17:59.500Z,98650.63
2023-05-08T05:20:25.855Z,98646.91
2023-05-08T05:22:52.112Z,98642.00
2023-05-08T05:25:18.523Z,98642.13
2023-05-08T05:27:44.821Z,98646.31
2023-05-08T05:30:11.533Z,98649.00
2023-05-08T05:46:06.040Z,98646.81
2023-05-08T05:53:48.802Z,98656.59
2023-05-08T05:56:15.129Z,98649.03
2023-05-08T06:01:16.685Z,98654.13
2023-05-08T06:03:43.253Z,98660.34
2023-05-08T06:22:51.788Z,98660.78
2023-05-08T06:25:18.104Z,98662.78
2023-05-08T06:27:44.424Z,98660.09
2023-05-08T06:30:11.212Z,98657.84
2023-05-08T06:32:37.903Z,98660.69
2023-05-08T06:35:04.611Z,98666.63
2023-05-08T06:37:30.928Z,98670.50
2023-05-08T06:40:10.323Z,98669.66
2023-05-08T07:06:48.758Z,98674.34
2023-05-08T07:40:39.657Z,98661.97
2023-05-08T07:48:48.827Z,98673.03
2023-05-08T08:04:37.983Z,98665.31
2023-05-08T08:07:04.385Z,98663.84
2023-05-08T08:09:30.718Z,98670.91
2023-05-08T08:20:00.049Z,98667.28
2023-05-08T08:22:26.677Z,98664.28
2023-05-08T08:24:55.864Z,98668.25
2023-05-08T08:27:23.014Z,98670.75
2023-05-08T08:29:51.135Z,98670.19
2023-05-08T08:32:18.786Z,98668.00
2023-05-08T08:34:45.090Z,98662.75
2023-05-08T08:37:13.684Z,98668.19
2023-05-08T08:39:40.010Z,98661.47
2023-05-08T08:42:06.321Z,98659.31
2023-05-08T08:44:32.580Z,98661.91
2023-05-08T08:46:59.362Z,98656.25
2023-05-08T08:49:31.375Z,98653.41
2023-05-08T08:52:15.481Z,98658.34
2023-05-08T08:54:44.146Z,98665.56
2023-05-08T08:57:13.229Z,98658.09
2023-05-08T08:59:40.634Z,98653.84
2023-05-08T09:02:11.168Z,98658.44
2023-05-08T09:04:38.385Z,98656.75
2023-05-08T09:07:05.110Z,98659.72
2023-05-08T09:09:33.078Z,98657.88
2023-05-08T09:11:59.474Z,98664.38
2023-05-08T09:14:26.399Z,98665.47
2023-05-08T09:16:55.812Z,98664.59
2023-05-08T09:19:26.183Z,98664.09
2023-05-08T09:21:54.946Z,98664.06
2023-05-08T09:24:21.379Z,98665.47
2023-05-08T09:26:47.686Z,98663.06
2023-05-08T09:29:16.176Z,98667.69
2023-05-08T09:31:44.991Z,98661.69
2023-05-08T09:34:22.949Z,98657.38
2023-05-08T09:36:49.726Z,98660.91
2023-05-08T09:39:22.778Z,98661.75
2023-05-08T09:41:56.758Z,98667.97
2023-05-08T09:44:23.077Z,98662.28
2023-05-08T09:46:49.385Z,98662.03
2023-05-08T09:49:18.228Z,98665.00
2023-05-08T09:51:54.058Z,98661.97
2023-05-08T09:54:20.588Z,98659.31
2023-05-08T09:56:47.392Z,98660.47
2023-05-08T09:59:28.917Z,98660.22
2023-05-08T10:01:55.920Z,98664.56
2023-05-08T10:04:35.537Z,98665.91
2023-05-08T10:07:02.254Z,98672.94
2023-05-08T10:09:38.869Z,98663.72
2023-05-08T10:14:55.277Z,98667.50
2023-05-08T10:17:35.260Z,98658.00
2023-05-08T10:22:37.878Z,98648.38
2023-05-08T10:25:10.692Z,98656.00
2023-05-08T10:30:14.081Z,98662.09
2023-05-08T10:32:45.154Z,98655.31
2023-05-08T10:35:12.146Z,98651.97
2023-05-08T10:40:20.218Z,98645.78
2023-05-08T10:42:47.192Z,98648.50
2023-05-08T10:45:13.443Z,98653.06
2023-05-08T10:47:48.827Z,98653.31
2023-05-08T10:50:45.221Z,98657.34
2023-05-08T10:53:24.910Z,98653.16
2023-05-08T10:55:51.816Z,98642.66
2023-05-08T10:58:30.887Z,98647.63
2023-05-08T11:00:57.181Z,98647.38
2023-05-08T11:03:32.190Z,98641.84
2023-05-08T11:06:00.811Z,98645.94
2023-05-08T11:08:28.490Z,98641.84
2023-05-08T11:11:00.816Z,98641.03
2023-05-08T11:13:54.702Z,98642.94
2023-05-08T11:16:55.213Z,98635.28
2023-05-08T11:19:23.888Z,98639.00
2023-05-08T11:22:15.832Z,98635.63
2023-05-08T11:25:05.697Z,98629.47
2023-05-08T11:27:36.477Z,98632.41
2023-05-08T11:30:18.849Z,98637.06
2023-05-08T11:33:03.414Z,98628.63
2023-05-08T11:35:46.417Z,98634.41
2023-05-08T11:38:33.893Z,98636.63
2023-05-08T11:41:08.482Z,98633.59
2023-05-08T11:43:34.752Z,98636.16
2023-05-08T11:46:03.467Z,98634.09
2023-05-08T11:48:33.817Z,98634.88
2023-05-08T11:51:01.282Z,98632.69
2023-05-08T11:53:29.042Z,98631.16
2023-05-08T11:55:55.516Z,98636.28
2023-05-08T11:58:22.128Z,98626.25
2023-05-08T12:00:49.592Z,98624.38
2023-05-08T12:03:24.005Z,98633.56
2023-05-08T12:05:51.296Z,98630.03
2023-05-08T12:08:18.501Z,98632.47
2023-05-08T12:10:52.546Z,98629.94
2023-05-08T12:13:24.409Z,98623.38
2023-05-08T12:15:58.902Z,98636.09
2023-05-08T12:18:26.640Z,98634.47
2023-05-08T12:20:56.268Z,98630.34
2023-05-08T12:23:23.211Z,98621.50
2023-05-08T12:25:53.732Z,98629.25
2023-05-08T12:28:21.561Z,98630.97
2023-05-08T12:30:48.163Z,98625.88
2023-05-08T12:33:15.947Z,98633.72
2023-05-08T12:35:42.658Z,98633.25
2023-05-08T12:38:09.064Z,98629.38
2023-05-08T12:40:41.772Z,98631.78
2023-05-08T12:43:08.291Z,98632.47
2023-05-08T12:45:37.258Z,98632.16
2023-05-08T12:48:06.588Z,98628.22
2023-05-08T12:50:41.249Z,98635.25
2023-05-08T12:53:09.527Z,98634.34
2023-05-08T12:55:37.588Z,98636.88
2023-05-08T12:58:05.095Z,98630.97
2023-05-08T13:00:52.042Z,98629.63
2023-05-08T13:03:28.770Z,98631.81
2023-05-08T13:05:57.032Z,98628.00
2023-05-08T13:08:33.801Z,98627.94
2023-05-08T13:11:01.534Z,98630.19
2023-05-08T13:13:30.440Z,98618.22
2023-05-08T13:15:57.356Z,98617.63
2023-05-08T13:18:26.558Z,98613.28
2023-05-08T13:20:54.061Z,98607.97
2023-05-08T13:23:20.743Z,98611.53
2023-05-08T13:25:47.040Z,98605.78
2023-05-08T13:28:13.406Z,98602.97
2023-05-08T13:30:39.907Z,98601.41
2023-05-08T13:33:06.383Z,98604.88
2023-05-08T13:37:59.562Z,98595.88
2023-05-08T13:40:26.128Z,98599.63
2023-05-08T13:42:52.997Z,98598.00
2023-05-08T13:45:19.500Z,98588.69
2023-05-08T13:47:47.076Z,98587.06
2023-05-08T13:50:14.900Z,98588.06
2023-05-08T13:52:41.998Z,98584.72
2023-05-08T13:55:10.901Z,98585.59
2023-05-08T13:57:38.224Z,98579.41
2023-05-08T14:00:06.190Z,98581.75
2023-05-08T14:02:32.596Z,98576.50
2023-05-08T14:04:58.928Z,98584.56
2023-05-08T14:07:25.252Z,98582.34
2023-05-08T14:09:51.772Z,98587.50
2023-05-08T14:12:18.095Z,98581.47
2023-05-08T14:14:44.397Z,98588.22
2023-05-08T14:17:10.700Z,98582.94
2023-05-08T14:19:37.049Z,98580.78
2023-05-08T14:22:03.348Z,98574.78
2023-05-08T14:24:29.642Z,98574.72
2023-05-08T14:26:55.950Z,98570.00
2023-05-08T14:29:22.368Z,98562.53
2023-05-08T14:39:42.938Z,98560.09
2023-05-08T17:33:48.941Z,98570.63
2023-05-08T17:36:15.284Z,98572.22
2023-05-08T17:38:41.571Z,98573.53
2023-05-08T17:41:07.999Z,98571.75
2023-05-08T17:43:34.324Z,98576.03
2023-05-08T17:46:00.933Z,98571.19
2023-05-08T17:48:27.346Z,98579.50
2023-05-08T17:50:53.792Z,98573.78
2023-05-08T17:53:20.091Z,98588.34
2023-05-08T17:55:46.377Z,98590.34
2023-05-08T17:58:12.771Z,98598.13
2023-05-08T18:00:39.066Z,98590.03
2023-05-08T18:03:05.551Z,98591.59
2023-05-08T18:05:31.947Z,98589.41
2023-05-08T18:07:58.240Z,98588.59
2023-05-08T18:10:24.712Z,98592.34
2023-05-08T18:12:51.131Z,98590.31
2023-05-08T18:17:52.724Z,98599.59
2023-05-08T18:20:20.021Z,98599.59
2023-05-08T18:22:46.987Z,98610.78
2023-05-08T18:25:13.759Z,98605.06
2023-05-08T18:27:40.652Z,98610.47
2023-05-08T18:30:07.725Z,98611.78
2023-05-08T18:32:34.039Z,98613.91
2023-05-08T18:35:00.689Z,98616.78
2023-05-08T18:37:27.022Z,98615.97
2023-05-08T18:39:53.368Z,98619.13
2023-05-08T18:42:19.668Z,98617.16
2023-05-08T18:44:45.960Z,98617.09
2023-05-08T18:47:12.366Z,98617.59
2023-05-08T18:49:38.666Z,98615.38
2023-05-08T18:52:05.082Z,98622.56
2023-05-08T18:54:31.396Z,98618.44
2023-05-08T18:56:57.707Z,98615.19
2023-05-08T18:59:24.016Z,98631.59
2023-05-08T19:01:50.648Z,98628.06
2023-05-08T19:04:16.949Z,98636.41
2023-05-08T19:06:43.284Z,98635.59
2023-05-08T19:09:09.597Z,98635.25
2023-05-08T19:11:35.988Z,98632.81
2023-05-08T19:14:02.273Z,98634.13
2023-05-08T19:16:28.641Z,98638.13
2023-05-08T19:18:55.102Z,98634.03
2023-05-08T19:21:21.559Z,98641.31
2023-05-08T19:23:47.878Z,98632.66
2023-05-08T19:26:14.192Z,98632.88
2023-05-08T19:28:40.519Z,98632.53
2023-05-08T19:31:06.915Z,98625.53
2023-05-08T19:33:33.209Z,98631.97
2023-05-08T19:35:59.705Z,98629.28
2023-05-08T19:38:26.036Z,98634.09
2023-05-08T19:40:56.574Z,98637.84
2023-05-08T19:43:24.296Z,98632.69
2023-05-08T19:45:50.697Z,98630.50
2023-05-08T19:48:18.241Z,98642.56
2023-05-08T19:50:45.033Z,98634.72
2023-05-08T19:53:11.383Z,98638.97
2023-05-08T19:55:37.665Z,98634.66
2023-05-08T19:58:04.013Z,98643.53
2023-05-08T20:00:30.386Z,98647.03
2023-05-08T20:02:56.885Z,98649.75
2023-05-08T20:05:23.490Z,98649.75
2023-05-08T20:07:50.052Z,98648.09
2023-05-08T20:10:16.652Z,98648.69
2023-05-08T20:12:43.255Z,98653.25
2023-05-08T20:15:10.190Z,98648.91
2023-05-08T20:17:36.597Z,98650.78
2023-05-08T20:20:03.208Z,98646.69
2023-05-08T20:35:52.756Z,98642.50
2023-05-08T20:42:44.020Z,98640.94
2023-05-08T20:45:10.890Z,98638.94
2023-05-08T20:47:37.258Z,98641.06
2023-05-08T20:50:04.140Z,98638.84
2023-05-08T20:52:30.594Z,98630.44
2023-05-08T20:54:56.916Z,98633.13
2023-05-08T20:57:23.401Z,98634.19
2023-05-08T20:59:49.704Z,98636.31
2023-05-08T21:02:16.039Z,98636.31
2023-05-08T21:04:42.409Z,98628.22
2023-05-08T21:07:08.760Z,98618.28
2023-05-08T21:09:35.106Z,98612.09
2023-05-08T21:12:01.517Z,98614.78
2023-05-08T21:14:28.035Z,98612.56
2023-05-08T21:16:54.460Z,98599.38
2023-05-08T21:19:20.931Z,98609.31
2023-05-08T21:21:47.347Z,98612.25
2023-05-08T21:24:13.970Z,98608.16
2023-05-08T21:26:40.387Z,98609.63
2023-05-08T21:29:06.718Z,98608.25
2023-05-08T21:31:33.980Z,98611.16
2023-05-08T21:34:00.215Z,98595.19
2023-05-08T21:36:26.491Z,98598.09
2023-05-08T21:38:52.794Z,98593.53
2023-05-08T21:41:19.080Z,98594.94
2023-05-08T21:43:45.588Z,98595.41
2023-05-08T21:46:11.961Z,98589.22
2023-05-08T21:48:38.336Z,98593.53
2023-05-08T21:51:05.857Z,98588.16
2023-05-08T21:53:32.246Z,98591.91
2023-05-08T21:55:59.585Z,98587.84
2023-05-08T21:58:25.872Z,98581.06
2023-05-08T22:00:52.144Z,98576.38
2023-05-08T22:03:18.690Z,98575.22
2023-05-08T22:05:45.032Z,98574.06
2023-05-08T22:08:11.319Z,98573.00
2023-05-08T22:10:37.835Z,98577.56
2023-05-08T22:13:04.398Z,98569.50
2023-05-08T22:15:31.176Z,98566.25
2023-05-08T22:17:58.843Z,98574.78
2023-05-08T22:20:25.614Z,98574.19
2023-05-08T22:22:51.913Z,98575.25
2023-05-08T22:25:18.259Z,98574.44
2023-05-08T22:27:45.171Z,98572.56
2023-05-08T22:30:11.521Z,98575.25
2023-05-08T22:32:37.846Z,98579.81
2023-05-08T22:35:04.425Z,98578.41
2023-05-08T22:37:30.869Z,98579.91
2023-05-08T22:39:57.153Z,98580.16
2023-05-08T22:42:24.012Z,98578.19
2023-05-08T22:44:50.572Z,98572.81
2023-05-08T22:47:17.207Z,98572.00
2023-05-08T22:49:43.493Z,98574.91
2023-05-08T22:52:10.049Z,98571.06
2023-05-08T22:54:36.507Z,98581.47
2023-05-08T22:57:02.949Z,98578.44
2023-05-08T22:59:29.260Z,98568.53
2023-05-08T23:01:55.539Z,98573.06
2023-05-08T23:04:21.808Z,98576.00
2023-05-08T23:06:48.122Z,98568.38
2023-05-08T23:09:14.404Z,98566.66
2023-05-08T23:11:40.734Z,98568.50
2023-05-08T23:14:07.122Z,98566.06
2023-05-08T23:16:33.438Z,98566.88
2023-05-08T23:18:59.750Z,98558.25
2023-05-08T23:21:26.107Z,98557.66
2023-05-08T23:23:52.409Z,98559.53
2023-05-08T23:26:18.699Z,98556.25
2023-05-08T23:28:44.970Z,98560.25
2023-05-08T23:31:11.324Z,98552.66
2023-05-08T23:33:37.647Z,98560.09
2023-05-08T23:36:04.154Z,98558.13
2023-05-08T23:38:30.538Z,98556.72
2023-05-08T23:40:56.812Z,98553.69
2023-05-08T23:43:23.120Z,98552.06
2023-05-08T23:45:49.430Z,98545.88
2023-05-08T23:48:16.562Z,98554.16
2023-05-08T23:50:42.864Z,98539.56
2023-05-08T23:53:09.134Z,98542.72
2023-05-08T23:55:36.367Z,98538.19
2023-05-08T23:58:02.559Z,98533.03
